Time;durP1;ratioP1;P1;durP2;ratioP2;P2;SDS_P1;SDS_P2;PMS_P1;PMS_P2;Temp;Humidity;BMP_temperature;BMP_pressure;BME280_temperature;BME280_humidity;BME280_pressure;Samples;Min_cycle;Max_cycle;Signal;HPM_P1;HPM_P2
2022/12/11 00:01:27;;;;;;;248.27;54.63;;;;;;;;;;4977228;28;20035;-82
2022/12/11 00:03:53;;;;;;;246.68;58.88;;;;;;;;;;4973655;28;20035;-81
2022/12/11 00:06:20;;;;;;;238.93;53.80;;;;;;;;;;4972345;28;20492;-80
2022/12/11 00:09:05;;;;;;;227.93;53.88;;;;;;;;;;4955101;28;20043;-81
2022/12/11 00:11:50;;;;;;;248.30;55.85;;;;;;;;;;4985764;28;20432;-80
2022/12/11 00:14:16;;;;;;;233.10;51.97;;;;;;;;;;4968050;28;20037;-81
2022/12/11 00:16:42;;;;;;;240.30;54.33;;;;;;;;;;4962150;28;20440;-82
2022/12/11 00:19:08;;;;;;;236.77;53.88;;;;;;;;;;4961503;28;20042;-81
2022/12/11 00:21:35;;;;;;;255.63;57.53;;;;;;;;;;4983097;28;20119;-80
2022/12/11 00:24:01;;;;;;;239.73;59.03;;;;;;;;;;4981776;28;20042;-81
2022/12/11 00:26:27;;;;;;;238.73;58.20;;;;;;;;;;4973356;28;20038;-82
2022/12/11 00:28:54;;;;;;;241.20;57.35;;;;;;;;;;4972347;28;20113;-81
2022/12/11 00:31:21;;;;;;;224.10;57.25;;;;;;;;;;4987532;28;20077;-81
2022/12/11 00:33:48;;;;;;;253.43;57.50;;;;;;;;;;4974656;28;20035;-82
2022/12/11 00:36:15;;;;;;;249.98;58.40;;;;;;;;;;4961568;28;20453;-81
2022/12/11 00:38:41;;;;;;;229.35;55.13;;;;;;;;;;4975426;28;20030;-81
2022/12/11 00:41:09;;;;;;;229.95;54.78;;;;;;;;;;4977873;28;20047;-82
2022/12/11 00:43:35;;;;;;;215.75;55.28;;;;;;;;;;4988936;28;20050;-82
2022/12/11 00:46:01;;;;;;;244.63;61.05;;;;;;;;;;4982453;28;20066;-81
2022/12/11 00:48:27;;;;;;;256.85;60.50;;;;;;;;;;4991546;28;20041;-82
2022/12/11 00:50:53;;;;;;;249.07;58.97;;;;;;;;;;4984160;28;20047;-82
2022/12/11 00:53:19;;;;;;;243.55;59.63;;;;;;;;;;4994815;28;20039;-85
2022/12/11 00:55:45;;;;;;;238.95;58.90;;;;;;;;;;4996397;28;20086;-81
2022/12/11 00:58:13;;;;;;;255.88;63.60;;;;;;;;;;4989560;28;20019;-86
2022/12/11 01:00:39;;;;;;;246.18;60.88;;;;;;;;;;4991832;28;20010;-82
2022/12/11 01:03:05;;;;;;;264.15;61.97;;;;;;;;;;4993880;28;20078;-83
2022/12/11 01:05:32;;;;;;;263.17;62.10;;;;;;;;;;4984250;28;20062;-82
2022/12/11 01:07:58;;;;;;;281.25;63.55;;;;;;;;;;4972787;28;20114;-83
2022/12/11 01:10:24;;;;;;;266.75;61.72;;;;;;;;;;4971773;28;20085;-82
2022/12/11 01:12:58;;;;;;;271.58;62.20;;;;;;;;;;4973582;28;20038;-82
2022/12/11 01:15:28;;;;;;;263.30;64.28;;;;;;;;;;4949053;28;20496;-81
2022/12/11 01:17:55;;;;;;;249.07;61.80;;;;;;;;;;4966293;28;20110;-82
2022/12/11 01:20:21;;;;;;;253.60;61.15;;;;;;;;;;4978795;28;20031;-81
2022/12/11 01:22:48;;;;;;;227.88;58.88;;;;;;;;;;4953636;28;20035;-81
2022/12/11 01:25:14;;;;;;;245.18;60.38;;;;;;;;;;4969071;28;20404;-81
2022/12/11 01:27:40;;;;;;;241.77;62.35;;;;;;;;;;4981419;28;20781;-80
2022/12/11 01:30:07;;;;;;;245.50;58.65;;;;;;;;;;4967593;28;20023;-81
2022/12/11 01:32:34;;;;;;;221.02;58.22;;;;;;;;;;4954894;28;20027;-83
2022/12/11 01:35:02;;;;;;;230.05;58.53;;;;;;;;;;4964727;28;20054;-81
2022/12/11 01:37:28;;;;;;;221.10;57.58;;;;;;;;;;4969468;28;20065;-81
2022/12/11 01:39:54;;;;;;;206.25;55.05;;;;;;;;;;4966757;28;20031;-82
2022/12/11 01:42:20;;;;;;;208.20;55.30;;;;;;;;;;4970438;28;20026;-82
2022/12/11 01:44:46;;;;;;;186.52;52.60;;;;;;;;;;4968117;28;20049;-81
2022/12/11 01:47:13;;;;;;;208.40;55.85;;;;;;;;;;4966445;28;20054;-82
2022/12/11 01:49:39;;;;;;;207.95;57.45;;;;;;;;;;4962781;28;20503;-81
2022/12/11 01:52:07;;;;;;;209.30;55.05;;;;;;;;;;4967115;28;20106;-82
2022/12/11 01:54:34;;;;;;;211.32;59.53;;;;;;;;;;4968109;28;20027;-82
2022/12/11 01:57:03;;;;;;;212.95;58.67;;;;;;;;;;4958864;28;20035;-82
2022/12/11 01:59:33;;;;;;;224.02;59.40;;;;;;;;;;4965582;28;20027;-82
2022/12/11 02:02:05;;;;;;;208.32;57.33;;;;;;;;;;4968548;28;20019;-82
2022/12/11 02:04:32;;;;;;;184.40;53.85;;;;;;;;;;4966235;28;20400;-82
2022/12/11 02:06:59;;;;;;;195.30;55.55;;;;;;;;;;4970555;28;20057;-82
2022/12/11 02:09:26;;;;;;;194.48;58.60;;;;;;;;;;4964354;28;20089;-82
2022/12/11 02:11:58;;;;;;;186.02;55.15;;;;;;;;;;4965680;28;20365;-82
2022/12/11 02:14:30;;;;;;;169.98;53.28;;;;;;;;;;4969526;28;20088;-82
2022/12/11 02:17:02;;;;;;;160.52;50.97;;;;;;;;;;4960276;28;20637;-82
2022/12/11 02:19:38;;;;;;;160.00;52.47;;;;;;;;;;4948613;28;20396;-83
2022/12/11 02:22:08;;;;;;;162.25;50.60;;;;;;;;;;4937940;28;20022;-85
2022/12/11 02:24:37;;;;;;;167.85;52.75;;;;;;;;;;4965725;28;20026;-83
2022/12/11 02:27:03;;;;;;;159.13;51.47;;;;;;;;;;4964215;28;20058;-85
2022/12/11 02:29:43;;;;;;;152.77;53.20;;;;;;;;;;4962585;28;20027;-83
2022/12/11 02:32:21;;;;;;;136.95;46.85;;;;;;;;;;4983064;28;20029;-83
2022/12/11 02:35:20;;;;;;;148.57;49.80;;;;;;;;;;4958487;28;20152;-83
2022/12/11 02:37:47;;;;;;;133.02;46.90;;;;;;;;;;4942494;28;20053;-82
2022/12/11 02:40:16;;;;;;;125.63;47.80;;;;;;;;;;4966878;28;20465;-83
2022/12/11 02:42:43;;;;;;;129.75;47.55;;;;;;;;;;4966665;28;20027;-83
2022/12/11 02:45:10;;;;;;;120.22;46.00;;;;;;;;;;4961723;28;20033;-83
2022/12/11 02:47:37;;;;;;;117.55;42.60;;;;;;;;;;4963769;28;20411;-84
2022/12/11 02:50:07;;;;;;;104.47;40.47;;;;;;;;;;4966298;28;20054;-85
2022/12/11 02:52:34;;;;;;;111.85;42.22;;;;;;;;;;4966875;28;20431;-83
2022/12/11 02:55:00;;;;;;;100.03;39.83;;;;;;;;;;4967972;28;20037;-82
2022/12/11 02:57:27;;;;;;;108.18;41.05;;;;;;;;;;4965927;28;20446;-83
2022/12/11 02:59:53;;;;;;;102.78;41.28;;;;;;;;;;4980290;28;20125;-83
2022/12/11 03:02:19;;;;;;;97.65;39.92;;;;;;;;;;4965912;28;20424;-83
2022/12/11 03:04:46;;;;;;;85.75;37.08;;;;;;;;;;4968502;28;20093;-83
2022/12/11 03:07:15;;;;;;;80.75;34.70;;;;;;;;;;4963762;28;20042;-84
2022/12/11 03:09:42;;;;;;;79.25;33.85;;;;;;;;;;4960174;28;20059;-83
2022/12/11 03:12:10;;;;;;;87.55;37.35;;;;;;;;;;4967505;28;20038;-84
2022/12/11 03:14:37;;;;;;;83.63;35.05;;;;;;;;;;4982384;28;20259;-83
2022/12/11 03:17:03;;;;;;;88.32;35.42;;;;;;;;;;4968893;28;20038;-84
2022/12/11 03:19:47;;;;;;;82.45;35.72;;;;;;;;;;4963169;28;20031;-83
2022/12/11 03:22:19;;;;;;;73.10;31.25;;;;;;;;;;4965414;28;20512;-83
2022/12/11 03:24:52;;;;;;;79.32;35.17;;;;;;;;;;4961225;28;21258;-83
2022/12/11 03:27:21;;;;;;;90.75;37.97;;;;;;;;;;4964985;28;20031;-83
2022/12/11 03:30:08;;;;;;;82.60;36.13;;;;;;;;;;4965375;28;20122;-83
2022/12/11 03:32:41;;;;;;;85.85;35.95;;;;;;;;;;4967508;28;20027;-82
2022/12/11 03:35:13;;;;;;;91.20;37.20;;;;;;;;;;4967802;28;20050;-83
2022/12/11 03:37:41;;;;;;;84.22;35.70;;;;;;;;;;4963938;28;20031;-83
2022/12/11 03:40:12;;;;;;;77.93;35.63;;;;;;;;;;4968439;28;20560;-84
2022/12/11 03:42:38;;;;;;;;;;;;;;;;;;4970521;28;20038;-83
2022/12/11 03:45:05;;;;;;;83.88;35.08;;;;;;;;;;4969067;28;20446;-83
2022/12/11 03:47:32;;;;;;;80.50;34.63;;;;;;;;;;4967549;28;20101;-82
2022/12/11 03:49:59;;;;;;;78.55;34.88;;;;;;;;;;4970474;28;20439;-83
2022/12/11 03:52:26;;;;;;;84.78;35.45;;;;;;;;;;4967301;28;20130;-84
2022/12/11 03:54:54;;;;;;;77.88;34.33;;;;;;;;;;4985408;28;20035;-83
2022/12/11 03:57:22;;;;;;;74.80;33.40;;;;;;;;;;4968546;28;20034;-83
2022/12/11 03:59:48;;;;;;;78.55;33.85;;;;;;;;;;4968114;28;20498;-84
2022/12/11 04:02:15;;;;;;;82.35;32.72;;;;;;;;;;4986139;28;20049;-82
2022/12/11 04:04:41;;;;;;;80.60;33.70;;;;;;;;;;4966603;28;20042;-83
2022/12/11 04:07:07;;;;;;;69.93;30.98;;;;;;;;;;4967551;28;20027;-88
2022/12/11 04:09:33;;;;;;;68.10;31.40;;;;;;;;;;4967229;28;20047;-83
2022/12/11 04:12:00;;;;;;;72.97;33.97;;;;;;;;;;4965635;28;20353;-83
2022/12/11 04:17:10;;;;;;;70.78;33.03;;;;;;;;;;4964440;28;20042;-83
2022/12/11 04:25:07;;;;;;;82.68;35.47;;;;;;;;;;4970274;28;20476;-85
2022/12/11 04:27:48;;;;;;;81.03;35.53;;;;;;;;;;4985316;28;20031;-83
2022/12/11 04:30:16;;;;;;;79.18;34.90;;;;;;;;;;4955901;28;20089;-83
2022/12/11 04:32:43;;;;;;;81.10;35.60;;;;;;;;;;4970439;28;20492;-83
2022/12/11 04:35:09;;;;;;;82.30;35.67;;;;;;;;;;4966977;28;20031;-83
2022/12/11 04:37:35;;;;;;;77.85;35.17;;;;;;;;;;4983773;28;20182;-83
2022/12/11 04:40:02;;;;;;;74.43;33.53;;;;;;;;;;4965675;28;20039;-84
2022/12/11 04:42:28;;;;;;;85.00;37.47;;;;;;;;;;4971765;28;20019;-84
2022/12/11 04:44:55;;;;;;;75.65;34.83;;;;;;;;;;4973622;28;20093;-84
2022/12/11 04:47:21;;;;;;;79.32;36.17;;;;;;;;;;4951094;28;20133;-83
2022/12/11 04:49:47;;;;;;;77.20;34.65;;;;;;;;;;4967932;28;20104;-83
2022/12/11 04:52:13;;;;;;;78.50;35.97;;;;;;;;;;4959741;28;20512;-82
2022/12/11 04:54:39;;;;;;;78.63;36.92;;;;;;;;;;4983272;28;20407;-83
2022/12/11 04:57:05;;;;;;;73.28;34.88;;;;;;;;;;4960711;28;20163;-84
2022/12/11 04:59:32;;;;;;;75.40;34.58;;;;;;;;;;4966932;28;20373;-83
2022/12/11 05:01:58;;;;;;;78.22;36.13;;;;;;;;;;4969660;28;20157;-83
2022/12/11 05:04:25;;;;;;;71.57;33.88;;;;;;;;;;4964976;28;20404;-83
2022/12/11 05:06:51;;;;;;;78.80;35.53;;;;;;;;;;4968778;28;20054;-84
2022/12/11 05:09:17;;;;;;;75.90;36.30;;;;;;;;;;4984537;28;20035;-84
2022/12/11 05:11:43;;;;;;;79.88;36.70;;;;;;;;;;4971020;28;20027;-84
2022/12/11 05:14:10;;;;;;;76.25;36.20;;;;;;;;;;4966774;28;20538;-83
2022/12/11 05:16:36;;;;;;;83.88;38.03;;;;;;;;;;4977172;28;20050;-83
2022/12/11 05:19:02;;;;;;;81.75;36.53;;;;;;;;;;4963475;28;20101;-83
2022/12/11 05:21:28;;;;;;;86.18;38.10;;;;;;;;;;4955105;28;20041;-83
2022/12/11 05:23:54;;;;;;;82.53;36.47;;;;;;;;;;4973064;28;20117;-83
2022/12/11 05:26:20;;;;;;;83.30;36.55;;;;;;;;;;4964841;28;20023;-83
2022/12/11 05:28:52;;;;;;;76.68;34.55;;;;;;;;;;4967595;28;20035;-83
2022/12/11 05:31:19;;;;;;;78.72;35.63;;;;;;;;;;4961111;28;20023;-82
2022/12/11 05:33:45;;;;;;;89.85;37.45;;;;;;;;;;4967229;28;20109;-83
2022/12/11 05:36:14;;;;;;;82.30;36.15;;;;;;;;;;4967909;28;20125;-83
2022/12/11 05:38:40;;;;;;;81.78;36.17;;;;;;;;;;4965340;28;20106;-83
2022/12/11 05:41:07;;;;;;;79.10;36.03;;;;;;;;;;4965893;28;20034;-82
2022/12/11 05:43:35;;;;;;;76.97;34.03;;;;;;;;;;4963410;28;20035;-83
2022/12/11 05:46:20;;;;;;;88.00;36.90;;;;;;;;;;4962219;28;20361;-82
2022/12/11 05:49:05;;;;;;;74.00;34.50;;;;;;;;;;4963913;28;20055;-82
2022/12/11 05:51:34;;;;;;;79.70;36.70;;;;;;;;;;4973308;28;20023;-82
2022/12/11 05:54:01;;;;;;;78.00;36.08;;;;;;;;;;4974405;28;20035;-85
2022/12/11 05:59:31;;;;;;;80.15;35.53;;;;;;;;;;4966957;28;20034;-83
2022/12/11 06:01:59;;;;;;;89.15;38.40;;;;;;;;;;4979022;28;20078;-82
2022/12/11 06:04:25;;;;;;;75.75;36.33;;;;;;;;;;4971414;28;20094;-81
2022/12/11 06:06:53;;;;;;;83.63;36.22;;;;;;;;;;4978779;28;20031;-82
2022/12/11 06:09:20;;;;;;;80.53;35.35;;;;;;;;;;4981665;28;20030;-82
2022/12/11 06:11:46;;;;;;;73.63;34.50;;;;;;;;;;4992326;28;20034;-83
2022/12/11 06:14:13;;;;;;;76.90;36.08;;;;;;;;;;4978614;28;20031;-83
2022/12/11 06:16:39;;;;;;;83.13;36.95;;;;;;;;;;4980643;28;20074;-82
2022/12/11 06:19:05;;;;;;;75.90;34.92;;;;;;;;;;4961859;28;20044;-82
2022/12/11 06:21:32;;;;;;;79.72;33.90;;;;;;;;;;4983566;28;20031;-81
2022/12/11 06:23:59;;;;;;;69.55;33.72;;;;;;;;;;4977226;28;20043;-82
2022/12/11 06:26:26;;;;;;;70.25;32.53;;;;;;;;;;4973726;28;20038;-83
2022/12/11 06:28:53;;;;;;;79.25;35.53;;;;;;;;;;4968276;28;20393;-84
2022/12/11 06:31:20;;;;;;;79.78;35.05;;;;;;;;;;4954300;28;20511;-83
2022/12/11 06:33:46;;;;;;;70.38;33.50;;;;;;;;;;4969417;28;20038;-85
2022/12/11 06:36:13;;;;;;;70.43;34.13;;;;;;;;;;4966537;28;20031;-84
2022/12/11 06:38:40;;;;;;;69.38;31.77;;;;;;;;;;4961195;28;20042;-82
2022/12/11 06:41:07;;;;;;;73.07;32.60;;;;;;;;;;4962811;28;20045;-89
2022/12/11 06:43:33;;;;;;;69.13;33.13;;;;;;;;;;4968278;28;20496;-83
2022/12/11 06:45:59;;;;;;;73.55;33.72;;;;;;;;;;4966151;28;20034;-83
2022/12/11 06:48:25;;;;;;;71.22;32.65;;;;;;;;;;4961591;28;20027;-83
2022/12/11 06:50:51;;;;;;;69.95;32.10;;;;;;;;;;4965775;28;20031;-83
2022/12/11 06:53:17;;;;;;;69.47;32.35;;;;;;;;;;4966863;28;20041;-83
2022/12/11 06:55:44;;;;;;;69.97;32.72;;;;;;;;;;4968918;28;20062;-83
2022/12/11 06:58:10;;;;;;;68.15;33.88;;;;;;;;;;4956465;28;20027;-82
2022/12/11 07:00:37;;;;;;;73.47;34.33;;;;;;;;;;4967465;28;20042;-83
2022/12/11 07:03:03;;;;;;;66.07;31.90;;;;;;;;;;4968634;28;20140;-84
2022/12/11 07:05:30;;;;;;;71.10;34.05;;;;;;;;;;4964474;28;20484;-82
2022/12/11 07:07:56;;;;;;;72.05;33.00;;;;;;;;;;4982851;28;20623;-82
2022/12/11 07:10:23;;;;;;;79.10;36.80;;;;;;;;;;4966535;28;20034;-82
2022/12/11 07:12:49;;;;;;;73.45;35.70;;;;;;;;;;4965781;28;20034;-82
2022/12/11 07:15:15;;;;;;;82.18;36.17;;;;;;;;;;4964249;28;20049;-82
2022/12/11 07:17:41;;;;;;;80.15;36.33;;;;;;;;;;4987804;28;20035;-82
2022/12/11 07:20:08;;;;;;;80.97;36.53;;;;;;;;;;4968485;28;20090;-82
2022/12/11 07:22:34;;;;;;;82.03;36.20;;;;;;;;;;4965302;28;20070;-83
2022/12/11 07:25:00;;;;;;;79.80;35.80;;;;;;;;;;4961476;28;20055;-83
2022/12/11 07:27:27;;;;;;;85.47;36.13;;;;;;;;;;4947210;28;20085;-84
2022/12/11 07:29:54;;;;;;;82.78;37.58;;;;;;;;;;4984257;28;20480;-82
2022/12/11 07:32:20;;;;;;;77.90;34.20;;;;;;;;;;4972823;28;20058;-82
2022/12/11 07:34:47;;;;;;;75.82;35.33;;;;;;;;;;4954906;28;20538;-80
2022/12/11 07:37:15;;;;;;;81.43;34.58;;;;;;;;;;4966277;28;20401;-80
2022/12/11 07:39:41;;;;;;;75.60;34.63;;;;;;;;;;4972035;28;20045;-81
2022/12/11 07:42:07;;;;;;;75.50;34.13;;;;;;;;;;4963869;28;20038;-80
2022/12/11 07:44:33;;;;;;;74.13;33.65;;;;;;;;;;4971385;28;20071;-81
2022/12/11 07:46:59;;;;;;;77.10;34.90;;;;;;;;;;4971760;28;20546;-80
2022/12/11 07:49:25;;;;;;;81.40;36.08;;;;;;;;;;4972185;28;20073;-80
2022/12/11 07:51:52;;;;;;;75.78;34.75;;;;;;;;;;4971524;28;20039;-81
2022/12/11 07:54:19;;;;;;;81.93;35.83;;;;;;;;;;4966650;28;20487;-81
2022/12/11 07:56:46;;;;;;;78.57;35.40;;;;;;;;;;4965947;28;20495;-81
2022/12/11 07:59:13;;;;;;;79.82;33.90;;;;;;;;;;4968681;28;20031;-81
2022/12/11 08:01:41;;;;;;;72.03;33.80;;;;;;;;;;4965710;28;20039;-81
2022/12/11 08:04:10;;;;;;;74.43;33.45;;;;;;;;;;4984192;28;20038;-81
2022/12/11 08:06:37;;;;;;;72.50;31.73;;;;;;;;;;4970920;28;20038;-81
2022/12/11 08:09:05;;;;;;;66.10;32.03;;;;;;;;;;4970968;28;20436;-81
2022/12/11 08:11:31;;;;;;;72.47;34.13;;;;;;;;;;4966338;28;20038;-81
2022/12/11 08:13:58;;;;;;;74.93;35.25;;;;;;;;;;4955109;28;20042;-81
2022/12/11 08:16:24;;;;;;;78.22;36.45;;;;;;;;;;4967620;28;20080;-81
2022/12/11 08:18:51;;;;;;;77.50;35.90;;;;;;;;;;4972214;28;20046;-81
2022/12/11 08:21:22;;;;;;;77.00;37.75;;;;;;;;;;4971578;28;20034;-80
2022/12/11 08:23:48;;;;;;;76.57;36.53;;;;;;;;;;4967589;28;20130;-81
2022/12/11 08:26:16;;;;;;;78.68;36.75;;;;;;;;;;4969046;28;20471;-81
2022/12/11 08:28:43;;;;;;;79.20;36.58;;;;;;;;;;4967574;28;20499;-81
2022/12/11 08:31:10;;;;;;;73.18;35.70;;;;;;;;;;4966091;28;20619;-81
2022/12/11 08:33:37;;;;;;;77.72;37.33;;;;;;;;;;4968468;28;20066;-81
2022/12/11 08:36:03;;;;;;;78.57;37.67;;;;;;;;;;4944358;28;20454;-80
2022/12/11 08:38:30;;;;;;;78.13;35.65;;;;;;;;;;4954752;28;20030;-81
2022/12/11 08:40:56;;;;;;;74.10;35.47;;;;;;;;;;4972690;28;20396;-81
2022/12/11 08:43:22;;;;;;;65.47;33.15;;;;;;;;;;4971438;28;20030;-80
2022/12/11 08:45:48;;;;;;;68.82;34.13;;;;;;;;;;4968445;28;20058;-81
2022/12/11 08:48:15;;;;;;;68.13;33.13;;;;;;;;;;4971776;28;20093;-80
2022/12/11 08:50:42;;;;;;;70.60;33.33;;;;;;;;;;4951905;28;20031;-80
2022/12/11 08:53:08;;;;;;;65.50;32.28;;;;;;;;;;4967257;28;20436;-82
2022/12/11 08:55:34;;;;;;;63.33;30.90;;;;;;;;;;4987481;28;20039;-82
2022/12/11 08:58:01;;;;;;;61.75;31.25;;;;;;;;;;4968813;28;20125;-83
2022/12/11 09:00:27;;;;;;;63.35;32.25;;;;;;;;;;4970993;28;20401;-81
2022/12/11 09:02:53;;;;;;;67.20;34.58;;;;;;;;;;4987370;28;20060;-82
2022/12/11 09:05:20;;;;;;;62.88;32.55;;;;;;;;;;4987673;28;20464;-80
2022/12/11 09:07:46;;;;;;;66.78;33.55;;;;;;;;;;4970939;28;20403;-81
2022/12/11 09:10:12;;;;;;;66.35;34.65;;;;;;;;;;4987121;28;20027;-81
2022/12/11 09:12:38;;;;;;;62.75;32.83;;;;;;;;;;4969594;28;20101;-80
2022/12/11 09:15:04;;;;;;;66.28;33.05;;;;;;;;;;4972039;28;20035;-82
2022/12/11 09:17:30;;;;;;;64.97;33.67;;;;;;;;;;4968089;28;20022;-81
2022/12/11 09:19:57;;;;;;;63.78;32.42;;;;;;;;;;4987201;28;20043;-81
2022/12/11 09:22:23;;;;;;;67.90;34.03;;;;;;;;;;4972007;28;20472;-81
2022/12/11 09:24:49;;;;;;;63.17;32.45;;;;;;;;;;4970707;28;20030;-81
2022/12/11 09:27:15;;;;;;;65.15;33.85;;;;;;;;;;4983960;28;20403;-81
2022/12/11 09:29:42;;;;;;;67.00;35.67;;;;;;;;;;4969357;28;20042;-81
2022/12/11 09:32:08;;;;;;;67.70;35.33;;;;;;;;;;4971048;28;20029;-82
2022/12/11 09:34:34;;;;;;;67.65;36.28;;;;;;;;;;4971332;28;20503;-81
2022/12/11 09:37:00;;;;;;;68.63;35.72;;;;;;;;;;4970101;28;20042;-81
2022/12/11 09:39:26;;;;;;;68.47;34.67;;;;;;;;;;4971109;28;20448;-81
2022/12/11 09:41:58;;;;;;;72.43;37.05;;;;;;;;;;4971929;28;20073;-81
2022/12/11 09:44:38;;;;;;;68.95;36.85;;;;;;;;;;4971432;28;20027;-81
2022/12/11 09:47:12;;;;;;;70.32;35.38;;;;;;;;;;4963698;28;20041;-81
2022/12/11 09:49:41;;;;;;;69.22;35.53;;;;;;;;;;4960586;28;20611;-81
2022/12/11 09:52:07;;;;;;;65.07;35.80;;;;;;;;;;4953298;28;20034;-81
2022/12/11 09:54:33;;;;;;;66.55;35.20;;;;;;;;;;4967238;28;20035;-82
2022/12/11 09:57:08;;;;;;;72.10;36.88;;;;;;;;;;4966812;28;20034;-81
2022/12/11 10:00:03;;;;;;;69.57;35.17;;;;;;;;;;4967300;28;20074;-81
2022/12/11 10:02:33;;;;;;;62.08;33.30;;;;;;;;;;4958473;28;20038;-80
2022/12/11 10:05:00;;;;;;;71.50;35.80;;;;;;;;;;4971699;28;20030;-81
2022/12/11 10:07:46;;;;;;;65.78;34.03;;;;;;;;;;4969377;28;20047;-81
2022/12/11 10:10:18;;;;;;;70.90;36.28;;;;;;;;;;4953844;28;20035;-81
2022/12/11 10:12:53;;;;;;;66.38;34.55;;;;;;;;;;4968071;28;20022;-81
2022/12/11 10:15:29;;;;;;;70.00;34.50;;;;;;;;;;4956944;28;20014;-81
2022/12/11 10:17:56;;;;;;;65.57;34.65;;;;;;;;;;4969626;28;20041;-81
2022/12/11 10:20:32;;;;;;;66.50;35.22;;;;;;;;;;4936183;28;20460;-81
2022/12/11 10:22:58;;;;;;;64.47;33.42;;;;;;;;;;4968294;28;20059;-81
2022/12/11 10:25:36;;;;;;;60.85;31.13;;;;;;;;;;4967033;28;20419;-81
2022/12/11 10:28:12;;;;;;;62.45;32.15;;;;;;;;;;4959900;28;20110;-82
2022/12/11 10:30:40;;;;;;;59.28;31.95;;;;;;;;;;4982427;28;20023;-82
2022/12/11 10:33:23;;;;;;;64.30;32.45;;;;;;;;;;4983683;28;20437;-81
2022/12/11 10:35:53;;;;;;;63.47;32.45;;;;;;;;;;4969681;28;20121;-81
2022/12/11 10:38:24;;;;;;;64.05;33.90;;;;;;;;;;4964297;28;20026;-81
2022/12/11 10:41:04;;;;;;;67.60;32.63;;;;;;;;;;4968667;28;20038;-80
2022/12/11 10:43:34;;;;;;;61.92;32.15;;;;;;;;;;4979708;28;20045;-79
2022/12/11 10:46:00;;;;;;;60.33;30.53;;;;;;;;;;4960252;28;20142;-82
2022/12/11 10:48:26;;;;;;;57.00;30.48;;;;;;;;;;4941868;28;20042;-82
2022/12/11 10:50:57;;;;;;;59.55;31.50;;;;;;;;;;4984442;28;20023;-82
2022/12/11 10:53:24;;;;;;;58.38;30.38;;;;;;;;;;4964549;28;20519;-81
2022/12/11 10:55:51;;;;;;;60.45;31.42;;;;;;;;;;4982551;28;20023;-81
2022/12/11 10:58:23;;;;;;;57.58;31.25;;;;;;;;;;4964287;28;20404;-81
2022/12/11 11:01:00;;;;;;;63.05;32.15;;;;;;;;;;4965031;28;20361;-82
2022/12/11 11:03:27;;;;;;;57.33;30.25;;;;;;;;;;4966624;28;20042;-82
2022/12/11 11:06:25;;;;;;;56.03;30.35;;;;;;;;;;4981593;28;20685;-83
2022/12/11 11:08:55;;;;;;;58.22;30.02;;;;;;;;;;4955642;28;20597;-82
2022/12/11 11:11:38;;;;;;;51.40;28.30;;;;;;;;;;4966002;28;20089;-81
2022/12/11 11:14:04;;;;;;;59.08;30.60;;;;;;;;;;4957939;28;20031;-83
2022/12/11 11:16:31;;;;;;;55.28;28.60;;;;;;;;;;4963093;28;20034;-81
2022/12/11 11:18:57;;;;;;;54.83;27.95;;;;;;;;;;4973081;28;20759;-82
2022/12/11 11:21:25;;;;;;;56.22;29.70;;;;;;;;;;4963103;28;20027;-81
2022/12/11 11:23:52;;;;;;;53.50;28.73;;;;;;;;;;4965516;28;20024;-82
2022/12/11 11:26:19;;;;;;;54.50;29.38;;;;;;;;;;4945690;28;20612;-82
2022/12/11 11:28:56;;;;;;;58.80;29.17;;;;;;;;;;4964330;28;20760;-82
2022/12/11 11:31:33;;;;;;;58.70;30.20;;;;;;;;;;4978803;28;20031;-82
2022/12/11 11:34:02;;;;;;;57.33;28.58;;;;;;;;;;4964372;28;20030;-82
2022/12/11 11:36:30;;;;;;;51.75;28.40;;;;;;;;;;4962353;28;20035;-81
2022/12/11 11:38:59;;;;;;;53.42;28.67;;;;;;;;;;4966672;28;20061;-82
2022/12/11 11:41:31;;;;;;;55.53;27.92;;;;;;;;;;4964017;28;20114;-81
2022/12/11 11:43:58;;;;;;;55.97;28.27;;;;;;;;;;4967739;28;20034;-81
2022/12/11 11:46:28;;;;;;;53.22;30.13;;;;;;;;;;4967292;28;20027;-81
2022/12/11 11:48:57;;;;;;;56.33;29.13;;;;;;;;;;4968771;28;20049;-82
2022/12/11 11:51:28;;;;;;;57.40;28.75;;;;;;;;;;4959667;28;20030;-81
2022/12/11 11:53:56;;;;;;;56.05;28.83;;;;;;;;;;4970855;28;20037;-81
2022/12/11 11:56:27;;;;;;;59.35;29.45;;;;;;;;;;4971701;28;20038;-81
2022/12/11 11:58:58;;;;;;;53.67;27.83;;;;;;;;;;4971326;28;20035;-81
2022/12/11 12:01:25;;;;;;;53.10;27.85;;;;;;;;;;4948936;28;20066;-81
2022/12/11 12:03:53;;;;;;;50.38;27.85;;;;;;;;;;4971769;28;20023;-79
2022/12/11 12:06:24;;;;;;;52.55;27.05;;;;;;;;;;4957051;28;20134;-82
2022/12/11 12:08:53;;;;;;;54.92;29.02;;;;;;;;;;4973172;28;20038;-81
2022/12/11 12:11:37;;;;;;;50.80;27.15;;;;;;;;;;4956109;28;20023;-81
2022/12/11 12:14:07;;;;;;;53.05;26.88;;;;;;;;;;4958474;28;20027;-82
2022/12/11 12:16:36;;;;;;;50.72;27.60;;;;;;;;;;4969033;28;20041;-80
2022/12/11 12:19:23;;;;;;;60.97;28.75;;;;;;;;;;4986776;28;20113;-81
2022/12/11 12:21:51;;;;;;;55.05;27.40;;;;;;;;;;4988737;28;20114;-82
2022/12/11 12:24:20;;;;;;;53.50;27.40;;;;;;;;;;4980175;28;20031;-81
2022/12/11 12:26:51;;;;;;;54.55;28.08;;;;;;;;;;4978130;28;20035;-80
2022/12/11 12:29:18;;;;;;;53.90;27.65;;;;;;;;;;4974908;28;20020;-82
2022/12/11 12:31:47;;;;;;;63.58;28.58;;;;;;;;;;4978820;28;20040;-82
2022/12/11 12:34:20;;;;;;;53.10;26.90;;;;;;;;;;4981705;28;20031;-81
2022/12/11 12:36:52;;;;;;;56.58;27.83;;;;;;;;;;4981677;28;20031;-81
2022/12/11 12:39:37;;;;;;;54.63;27.23;;;;;;;;;;4971275;28;20055;-81
2022/12/11 12:42:03;;;;;;;54.53;28.70;;;;;;;;;;4971421;28;20388;-82
2022/12/11 12:44:35;;;;;;;63.20;29.20;;;;;;;;;;4972007;28;20026;-82
2022/12/11 12:47:07;;;;;;;58.63;29.25;;;;;;;;;;4966602;28;20027;-82
2022/12/11 12:49:36;;;;;;;65.90;29.02;;;;;;;;;;4964769;28;20023;-82
2022/12/11 12:52:03;;;;;;;64.20;31.30;;;;;;;;;;4981349;28;20037;-82
2022/12/11 12:54:30;;;;;;;66.13;29.45;;;;;;;;;;4968861;28;20046;-83
2022/12/11 12:56:57;;;;;;;65.15;30.50;;;;;;;;;;4954008;28;20042;-83
2022/12/11 12:59:25;;;;;;;71.40;32.25;;;;;;;;;;4966789;28;20112;-83
2022/12/11 13:02:01;;;;;;;67.63;30.05;;;;;;;;;;4966975;28;20460;-82
2022/12/11 13:04:41;;;;;;;71.60;31.25;;;;;;;;;;4960290;28;20070;-82
2022/12/11 13:07:13;;;;;;;68.82;30.60;;;;;;;;;;4967009;28;20039;-82
2022/12/11 13:09:40;;;;;;;64.30;30.58;;;;;;;;;;4963012;28;20058;-82
2022/12/11 13:12:12;;;;;;;65.85;32.10;;;;;;;;;;4961992;28;20031;-83
2022/12/11 13:14:39;;;;;;;67.90;31.65;;;;;;;;;;4980524;28;20447;-82
2022/12/11 13:17:32;;;;;;;72.15;33.03;;;;;;;;;;4963812;28;20100;-82
2022/12/11 13:20:13;;;;;;;68.90;30.55;;;;;;;;;;4967555;28;20055;-81
2022/12/11 13:22:58;;;;;;;62.83;30.48;;;;;;;;;;4968694;28;20035;-82
2022/12/11 13:25:24;;;;;;;69.57;32.75;;;;;;;;;;4964506;28;20039;-82
2022/12/11 13:27:50;;;;;;;77.07;34.05;;;;;;;;;;4965689;28;20077;-81
2022/12/11 13:30:24;;;;;;;75.13;32.08;;;;;;;;;;4954097;28;20058;-82
2022/12/11 13:33:05;;;;;;;75.57;34.20;;;;;;;;;;4963131;28;20027;-81
2022/12/11 13:35:34;;;;;;;70.90;32.85;;;;;;;;;;4967185;28;20034;-82
2022/12/11 13:38:06;;;;;;;71.22;32.50;;;;;;;;;;4956521;28;20404;-82
2022/12/11 13:40:40;;;;;;;70.65;33.35;;;;;;;;;;4964793;28;20730;-82
2022/12/11 13:43:10;;;;;;;73.50;33.35;;;;;;;;;;4967024;28;20035;-83
2022/12/11 13:45:44;;;;;;;71.10;33.58;;;;;;;;;;4967254;28;20472;-82
2022/12/11 13:48:17;;;;;;;79.22;34.63;;;;;;;;;;4962468;28;20129;-82
2022/12/11 13:50:43;;;;;;;68.28;33.35;;;;;;;;;;4955332;28;20034;-82
2022/12/11 13:53:14;;;;;;;78.07;32.60;;;;;;;;;;4968283;28;20030;-82
2022/12/11 13:55:40;;;;;;;77.55;33.75;;;;;;;;;;4967269;28;20185;-82
2022/12/11 13:58:20;;;;;;;73.38;31.20;;;;;;;;;;4982350;28;20650;-82
2022/12/11 14:01:13;;;;;;;81.57;33.72;;;;;;;;;;4965220;28;21254;-82
2022/12/11 14:03:53;;;;;;;74.07;33.58;;;;;;;;;;4964978;28;20177;-81
2022/12/11 14:06:19;;;;;;;76.00;33.40;;;;;;;;;;4965146;28;20042;-82
2022/12/11 14:08:47;;;;;;;72.55;34.13;;;;;;;;;;4964447;28;20029;-82
2022/12/11 14:11:26;;;;;;;70.80;31.88;;;;;;;;;;4966442;28;20019;-82
2022/12/11 14:13:53;;;;;;;72.45;32.55;;;;;;;;;;4966925;28;20038;-82
2022/12/11 14:16:21;;;;;;;75.65;33.30;;;;;;;;;;4967326;28;20050;-82
2022/12/11 14:18:49;;;;;;;79.60;35.72;;;;;;;;;;4958181;28;20038;-82
2022/12/11 14:21:33;;;;;;;70.03;31.95;;;;;;;;;;4967603;28;20114;-82
2022/12/11 14:24:02;;;;;;;75.47;34.58;;;;;;;;;;4970013;28;20455;-82
2022/12/11 14:26:28;;;;;;;69.93;33.30;;;;;;;;;;4956253;28;20046;-82
2022/12/11 14:28:54;;;;;;;69.20;33.10;;;;;;;;;;4966882;28;20031;-82
2022/12/11 14:31:33;;;;;;;75.05;33.67;;;;;;;;;;4967453;28;20027;-81
2022/12/11 14:34:05;;;;;;;79.55;34.35;;;;;;;;;;4968200;28;20054;-81
2022/12/11 14:36:32;;;;;;;71.65;33.00;;;;;;;;;;4973243;28;20065;-80